Weather reports worldwide

Advertisment
Monte Cimone, Italy (16134): temperature & dewpoint: 20.03.2019 08:00:00 - 26.03.2019 08:00:00 (CET)Monte Cimone, Italy (16134): wind speed: 20.03.2019 08:00:00 - 26.03.2019 08:00:00 (CET)Monte Cimone, Italy (16134): wind direction: 20.03.2019 08:00:00 - 26.03.2019 08:00:00 (CET)Monte Cimone, Italy (16134): visibility: 20.03.2019 08:00:00 - 26.03.2019 08:00:00 (CET)Monte Cimone, Italy (16134): sunshine duration: 20.03.2019 08:00:00 - 26.03.2019 08:00:00 (CET)
Date & Time tt [°C] td [°C] ff [km/h] ff [kn] dd vv [km] sd [min]
26.03.2019 08:00:00 - - - - - - -
26.03.2019 07:00:00 -8,2 -8,7 83 45 NE - -
26.03.2019 06:00:00 -8,2 -8,6 76 41 NE - -
26.03.2019 05:00:00 - - - - - - -
26.03.2019 04:00:00 -8,0 -8,0 74 40 NE - -
26.03.2019 03:00:00 -7,0 -7,0 70 38 NE - -
26.03.2019 02:00:00 -6,0 -6,0 74 40 NE - -
26.03.2019 01:00:00 -4,0 -4,0 67 36 NE - -
26.03.2019 00:00:00 -1,4 -1,4 18 10 NNE - -
25.03.2019 23:00:00 -0,2 -6,6 55 30 NW 40 -
25.03.2019 22:00:00 1,4 -4,3 50 27 NW 50 -
25.03.2019 21:00:00 2,6 -5,3 24 13 W 50 -
25.03.2019 20:00:00 2,6 -5,3 29 16 WSW 50 -
25.03.2019 19:00:00 3,4 -4,1 37 20 WSW 50 12
25.03.2019 18:00:00 4,2 -3,3 15 8 WSW 80 60
25.03.2019 17:00:00 5,0 -3,1 22 12 WSW 75 60
25.03.2019 16:00:00 5,4 -2,7 15 8 SW 80 60
25.03.2019 15:00:00 6,2 -2,4 11 6 WNW 80 60
25.03.2019 14:00:00 6,4 -2,2 11 6 W 80 60
25.03.2019 13:00:00 6,8 -1,9 8 4 WSW 75 60
25.03.2019 12:00:00 6,4 -1,7 11 6 SW 80 60
25.03.2019 11:00:00 6,2 -1,9 8 4 SSW 80 60
25.03.2019 10:00:00 4,6 -3,4 11 6 SW 75 60
25.03.2019 09:00:00 3,6 -4,4 21 11 WSW 75 60
25.03.2019 08:00:00 - - - - - - -
25.03.2019 07:00:00 - - - - - - -
25.03.2019 06:00:00 - - - - - - -
25.03.2019 05:00:00 - - - - - - -
25.03.2019 04:00:00 - - - - - - -
25.03.2019 03:00:00 - - - - - - -
25.03.2019 02:00:00 - - - - - - -
25.03.2019 01:00:00 - - - - - - -
25.03.2019 00:00:00 - - - - - - -
24.03.2019 23:00:00 - - - - - - -
24.03.2019 22:00:00 - - - - - - -
24.03.2019 21:00:00 - - - - - - -
24.03.2019 20:00:00 - - - - - - -
24.03.2019 19:00:00 - - - - - - -
24.03.2019 18:00:00 - - - - - - -
24.03.2019 17:00:00 - - - - - - -
24.03.2019 16:00:00 - - - - - - -
24.03.2019 15:00:00 - - - - - - -
24.03.2019 14:00:00 - - - - - - -
24.03.2019 13:00:00 - - - - - - -
24.03.2019 12:00:00 - - - - - - -
24.03.2019 11:00:00 - - - - - - -
24.03.2019 10:00:00 - - - - - - -
24.03.2019 09:00:00 - - - - - - -
24.03.2019 08:00:00 - - - - - - -
24.03.2019 07:00:00 - - - - - - -
24.03.2019 06:00:00 - - - - - - -
24.03.2019 05:00:00 - - - - - - -
24.03.2019 04:00:00 - - - - - - -
24.03.2019 03:00:00 - - - - - - -
24.03.2019 02:00:00 - - - - - - -
24.03.2019 01:00:00 - - - - - - -
24.03.2019 00:00:00 - - - - - - -
23.03.2019 23:00:00 - - - - - - -
23.03.2019 22:00:00 - - - - - - -
23.03.2019 21:00:00 - - - - - - -
23.03.2019 20:00:00 - - - - - - -
23.03.2019 19:00:00 - - - - - - -
23.03.2019 18:00:00 - - - - - - -
23.03.2019 17:00:00 - - - - - - -
23.03.2019 16:00:00 - - - - - - -
23.03.2019 15:00:00 - - - - - - -
23.03.2019 14:00:00 - - - - - - -
23.03.2019 13:00:00 - - - - - - -
23.03.2019 12:00:00 - - - - - - -
23.03.2019 11:00:00 - - - - - - -
23.03.2019 10:00:00 - - - - - - -
23.03.2019 09:00:00 - - - - - - -
23.03.2019 08:00:00 - - - - - - -
23.03.2019 07:00:00 - - - - - - -
23.03.2019 06:00:00 - - - - - - -
23.03.2019 05:00:00 - - - - - - -
23.03.2019 04:00:00 - - - - - - -
23.03.2019 03:00:00 - - - - - - -
23.03.2019 02:00:00 - - - - - - -
23.03.2019 01:00:00 - - - - - - -
23.03.2019 00:00:00 - - - - - - -
22.03.2019 23:00:00 - - - - - - -
22.03.2019 22:00:00 - - - - - - -
22.03.2019 21:00:00 - - - - - - -
22.03.2019 20:00:00 - - - - - - -
22.03.2019 19:00:00 - - - - - - -
22.03.2019 18:00:00 - - - - - - -
22.03.2019 17:00:00 - - - - - - -
22.03.2019 16:00:00 1,6 -17,3 13 7 NE 30 60
22.03.2019 15:00:00 2,0 -17,0 9 5 ENE 30 60
22.03.2019 14:00:00 2,6 -15,0 9 5 E 30 60
22.03.2019 13:00:00 1,4 -14,7 11 6 E 30 60
22.03.2019 12:00:00 0,4 -18,8 24 13 ENE 30 60
22.03.2019 11:00:00 0,4 -18,3 28 15 ENE 30 60
22.03.2019 10:00:00 0,0 -16,3 26 14 NE 30 60
22.03.2019 09:00:00 -0,2 -10,7 39 21 NE 30 60
22.03.2019 08:00:00 -0,8 -12,4 26 14 ENE 30 60
22.03.2019 07:00:00 -1,0 -6,0 29 16 NE 30 -
22.03.2019 06:00:00 -1,2 -6,0 28 15 NE 30 -
22.03.2019 05:00:00 -1,0 -5,1 34 18 ENE 30 -
22.03.2019 04:00:00 -1,0 -5,1 31 17 E 30 -
22.03.2019 03:00:00 -1,4 -5,3 35 19 E 30 -
22.03.2019 02:00:00 -1,2 -4,7 37 20 E 30 -
22.03.2019 01:00:00 -1,0 -4,9 37 20 ENE 30 -
22.03.2019 00:00:00 -1,2 -6,0 26 14 E 30 -
21.03.2019 23:00:00 -0,8 -7,0 35 19 E 30 -
21.03.2019 22:00:00 -1,0 -13,5 37 20 ENE 30 -
21.03.2019 21:00:00 -1,2 -18,3 29 16 ENE 30 -
21.03.2019 20:00:00 -1,2 -17,4 28 15 ENE 30 -
21.03.2019 19:00:00 -1,4 -8,4 39 21 NE 30 -
21.03.2019 18:00:00 -1,2 -7,1 35 19 NE 30 54
21.03.2019 17:00:00 -1,4 -5,4 34 18 NE 30 60
21.03.2019 16:00:00 -1,4 -4,4 35 19 NE 30 60
21.03.2019 15:00:00 -1,4 -4,4 29 16 ENE 30 60
21.03.2019 14:00:00 -2,0 -5,5 26 14 E 30 60
21.03.2019 13:00:00 -2,4 -5,1 34 18 ENE 30 60
21.03.2019 12:00:00 -3,6 -5,9 35 19 E 30 60
21.03.2019 11:00:00 -4,2 -7,6 35 19 E 30 60
21.03.2019 10:00:00 -6,0 -8,7 37 20 E 30 60
21.03.2019 09:00:00 -7,2 -8,3 50 27 ENE 50 48
21.03.2019 08:00:00 -7,4 -8,5 46 25 NE 50 30
21.03.2019 07:00:00 -7,6 -8,5 39 21 NE 50 0
21.03.2019 06:00:00 -7,6 -8,3 37 20 NE 50 -
21.03.2019 05:00:00 - - - - - - -
21.03.2019 04:00:00 -8,0 -8,8 48 26 NE 50 -
21.03.2019 03:00:00 -8,0 -9,5 48 26 NE 50 -
21.03.2019 02:00:00 - - - - - - -
21.03.2019 01:00:00 -7,8 -9,6 81 44 NE 50 -
21.03.2019 00:00:00 -8,0 -9,3 89 48 NE 50 -
20.03.2019 23:00:00 -8,0 -9,6 89 48 NE 50 -
20.03.2019 22:00:00 -8,2 -9,3 87 47 NE 50 -
20.03.2019 21:00:00 -8,2 -9,3 87 47 NE 50 -
20.03.2019 20:00:00 -8,2 -8,9 81 44 NE 50 -
20.03.2019 19:00:00 -8,4 -9,1 81 44 NE 50 -
20.03.2019 18:00:00 -8,0 -8,5 78 42 NE 50 0
20.03.2019 17:00:00 -7,0 -7,3 70 38 NE 20 0
20.03.2019 16:00:00 -6,2 -6,5 65 35 NE - 0
20.03.2019 15:00:00 -6,0 -6,3 65 35 NE - 0
20.03.2019 14:00:00 -6,0 -6,3 59 32 NE - 0
20.03.2019 13:00:00 -6,2 -6,5 52 28 NE - 0
20.03.2019 12:00:00 -7,2 -7,6 55 30 NE - 0
20.03.2019 11:00:00 -7,8 -8,3 59 32 NE - -
20.03.2019 10:00:00 -8,0 -8,7 65 35 NE - 0
20.03.2019 09:00:00 -8,0 -8,7 68 37 NE - 0
20.03.2019 08:00:00 -8,0 -8,7 78 42 NE - 0

tt = temperature
td = dewpoint
ff = wind speed
dd = wind direction
vv = visibility
sd = sunshine duration

Next stations